Time;durP1;ratioP1;P1;durP2;ratioP2;P2;SDS_P1;SDS_P2;PMS_P1;PMS_P2;Temp;Humidity;BMP_temperature;BMP_pressure;BME280_temperature;BME280_humidity;BME280_pressure;Samples;Min_cycle;Max_cycle;Signal;HPM_P1;HPM_P2
2023/01/28 00:00:05;;;;;;;29.80;14.98;;;;;;;-3.84;100.00;93232.97;2086867;28;20029;-81
2023/01/28 00:01:08;;;;;;;32.08;16.65;;;;;;;-3.90;100.00;93223.81;2079396;28;20025;-85
2023/01/28 00:02:13;;;;;;;30.02;16.55;;;;;;;-3.96;100.00;93225.09;2079287;28;20518;-84
2023/01/28 00:03:14;;;;;;;35.03;16.10;;;;;;;-3.91;100.00;93231.97;2071777;28;20030;-82
2023/01/28 00:04:15;;;;;;;27.35;15.18;;;;;;;-3.76;100.00;93228.75;2071035;28;20638;-83
2023/01/28 00:05:17;;;;;;;32.50;15.27;;;;;;;-3.77;100.00;93231.69;2079161;28;20064;-83
2023/01/28 00:06:18;;;;;;;30.95;16.00;;;;;;;-3.73;100.00;93225.50;2085131;28;20393;-84
2023/01/28 00:07:20;;;;;;;44.03;16.95;;;;;;;-3.65;100.00;93224.63;2076757;28;20037;-83
2023/01/28 00:08:20;;;;;;;34.28;16.45;;;;;;;-3.69;100.00;93220.38;2079139;28;20025;-83
2023/01/28 00:09:21;;;;;;;32.50;15.95;;;;;;;-3.74;100.00;93226.56;2087084;28;20017;-83
2023/01/28 00:10:22;;;;;;;32.28;16.40;;;;;;;-3.75;100.00;93230.28;2070599;28;20741;-83
2023/01/28 00:11:24;;;;;;;33.60;15.95;;;;;;;-3.80;100.00;93230.47;2075812;28;20052;-82
2023/01/28 00:12:26;;;;;;;32.45;15.13;;;;;;;-3.74;100.00;93234.41;2078646;28;20526;-80
2023/01/28 00:13:27;;;;;;;31.13;16.38;;;;;;;-3.78;100.00;93230.91;2078061;28;20148;-82
2023/01/28 00:14:28;;;;;;;31.98;16.38;;;;;;;-3.82;100.00;93224.81;2073252;28;20029;-82
2023/01/28 00:15:29;;;;;;;29.80;16.92;;;;;;;-3.72;100.00;93223.66;2078091;28;20183;-82
2023/01/28 00:16:30;;;;;;;34.10;16.27;;;;;;;-3.67;100.00;93226.81;2078763;28;20034;-81
2023/01/28 00:17:31;;;;;;;25.05;14.82;;;;;;;-3.72;100.00;93234.84;2079232;28;20594;-82
2023/01/28 00:18:32;;;;;;;30.92;16.67;;;;;;;-3.68;100.00;93222.69;2075107;28;20104;-81
2023/01/28 00:19:33;;;;;;;26.00;14.90;;;;;;;-3.67;100.00;93237.25;2071960;28;20034;-83
2023/01/28 00:20:35;;;;;;;29.05;14.85;;;;;;;-3.76;100.00;93233.97;2078814;28;20025;-83
2023/01/28 00:21:36;;;;;;;33.65;14.75;;;;;;;-3.77;100.00;93229.84;2078577;28;20133;-81
2023/01/28 00:22:37;;;;;;;28.65;15.00;;;;;;;-3.69;100.00;93226.34;2087130;28;20031;-83
2023/01/28 00:23:39;;;;;;;27.58;15.52;;;;;;;-3.68;100.00;93224.53;2078965;28;20049;-81
2023/01/28 00:24:40;;;;;;;28.88;15.10;;;;;;;-3.75;100.00;93227.66;2077669;28;20099;-83
2023/01/28 00:25:41;;;;;;;33.92;15.07;;;;;;;-3.75;100.00;93232.13;2078764;28;20060;-83
2023/01/28 00:26:42;;;;;;;27.27;15.02;;;;;;;-3.62;100.00;93234.44;2074167;28;20025;-83
2023/01/28 00:27:44;;;;;;;26.85;14.90;;;;;;;-3.74;100.00;93231.78;2071569;28;20038;-83
2023/01/28 00:28:45;;;;;;;29.60;15.88;;;;;;;-3.75;100.00;93230.28;2077140;28;20033;-84
2023/01/28 00:29:46;;;;;;;26.38;15.02;;;;;;;-3.76;100.00;93225.38;2087167;28;20028;-83
2023/01/28 00:30:47;;;;;;;28.00;14.88;;;;;;;-3.77;100.00;93222.00;2074836;28;20037;-84
2023/01/28 00:31:48;;;;;;;25.25;15.15;;;;;;;-3.75;100.00;93216.47;2075026;28;20037;-82
2023/01/28 00:32:49;;;;;;;31.92;16.67;;;;;;;-3.82;100.00;93214.34;2083789;28;20536;-83
2023/01/28 00:33:51;;;;;;;29.75;16.42;;;;;;;-3.89;100.00;93220.13;2084358;28;20482;-81
2023/01/28 00:34:52;;;;;;;28.23;15.73;;;;;;;-3.68;100.00;93217.47;2079345;28;20065;-82
2023/01/28 00:35:59;;;;;;;28.77;16.20;;;;;;;-3.86;100.00;93224.72;2072957;28;20022;-84
2023/01/28 00:37:00;;;;;;;27.35;16.38;;;;;;;-3.78;100.00;93219.69;2072443;28;20029;-81
2023/01/28 00:38:03;;;;;;;33.80;15.88;;;;;;;-3.82;100.00;93219.59;2076999;28;20022;-83
2023/01/28 00:39:05;;;;;;;30.92;17.50;;;;;;;-3.79;100.00;93224.16;2074929;28;20025;-82
2023/01/28 00:40:08;;;;;;;26.00;15.75;;;;;;;-3.80;100.00;93225.25;2071425;28;20503;-83
2023/01/28 00:41:15;;;;;;;31.38;16.58;;;;;;;-3.75;100.00;93225.06;2081898;28;20157;-84
2023/01/28 00:42:16;;;;;;;29.83;15.10;;;;;;;-3.69;100.00;93218.53;2082315;28;20134;-82
2023/01/28 00:43:18;;;;;;;30.25;15.55;;;;;;;-3.72;100.00;93224.41;2080609;28;20759;-83
2023/01/28 00:44:19;;;;;;;29.15;15.05;;;;;;;-3.65;100.00;93216.03;2086700;28;20029;-84
2023/01/28 00:45:20;;;;;;;24.40;14.45;;;;;;;-3.67;100.00;93210.38;2079135;28;20655;-82
2023/01/28 00:46:22;;;;;;;28.88;14.98;;;;;;;-3.67;100.00;93216.38;2073763;28;20108;-84
2023/01/28 00:47:23;;;;;;;27.60;14.65;;;;;;;-3.67;100.00;93216.38;2078969;28;20025;-81
2023/01/28 00:48:24;;;;;;;25.10;14.75;;;;;;;-3.62;100.00;93215.41;2075461;28;20040;-81
2023/01/28 00:49:25;;;;;;;27.60;15.18;;;;;;;-3.64;100.00;93220.94;2088021;28;20395;-83
2023/01/28 00:50:26;;;;;;;27.73;15.77;;;;;;;-3.56;100.00;93216.69;2091924;28;20058;-82
2023/01/28 00:51:27;;;;;;;22.83;14.02;;;;;;;-3.63;100.00;93214.63;2076852;28;20045;-83
2023/01/28 00:52:27;;;;;;;24.92;14.63;;;;;;;-3.73;100.00;93215.06;2079612;28;20115;-84
2023/01/28 00:53:29;;;;;;;25.05;14.77;;;;;;;-3.73;100.00;93214.28;2081051;28;20033;-82
2023/01/28 00:54:31;;;;;;;27.23;14.98;;;;;;;-3.53;100.00;93216.06;2085754;28;20022;-84
2023/01/28 00:55:32;;;;;;;25.50;14.73;;;;;;;-3.52;100.00;93214.22;2088321;28;20036;-83
2023/01/28 00:56:33;;;;;;;27.30;14.70;;;;;;;-3.47;100.00;93219.97;2085430;28;20029;-83
2023/01/28 00:57:34;;;;;;;28.52;14.60;;;;;;;-3.62;100.00;93218.00;2077009;28;20079;-82
2023/01/28 00:58:35;;;;;;;27.10;15.25;;;;;;;-3.68;100.00;93216.69;2080631;28;20039;-85
2023/01/28 00:59:36;;;;;;;27.52;15.40;;;;;;;-3.59;100.00;93212.16;2075790;28;20033;-84
2023/01/28 01:00:36;;;;;;;29.27;15.25;;;;;;;-3.46;100.00;93205.84;2080198;28;20079;-83
2023/01/28 01:01:37;;;;;;;25.77;14.48;;;;;;;-3.59;100.00;93215.53;2074272;28;20029;-83
2023/01/28 01:02:38;;;;;;;26.60;15.18;;;;;;;-3.52;100.00;93208.97;2072331;28;20057;-84
2023/01/28 01:03:40;;;;;;;29.77;14.65;;;;;;;-3.70;100.00;93209.16;2088559;28;20525;-81
2023/01/28 01:04:53;;;;;;;24.95;15.10;;;;;;;-3.68;100.00;93199.19;2086956;28;20071;-82
2023/01/28 01:05:56;;;;;;;23.08;14.45;;;;;;;-3.74;100.00;93204.91;2075555;28;20033;-82
2023/01/28 01:06:57;;;;;;;26.85;15.43;;;;;;;-3.81;100.00;93197.63;2080402;28;20025;-82
2023/01/28 01:07:59;;;;;;;28.17;15.60;;;;;;;-3.88;100.00;93190.31;2074245;28;20034;-80
2023/01/28 01:09:01;;;;;;;25.92;15.25;;;;;;;-3.87;100.00;93199.66;2088399;28;20029;-83
2023/01/28 01:10:03;;;;;;;27.58;15.68;;;;;;;-3.61;100.00;93196.03;2086625;28;20445;-83
2023/01/28 01:11:06;;;;;;;27.17;15.85;;;;;;;-3.67;100.00;93197.31;2072090;28;20136;-83
2023/01/28 01:12:07;;;;;;;26.63;15.77;;;;;;;-3.76;100.00;93197.41;2079717;28;20067;-83
2023/01/28 01:13:09;;;;;;;25.08;15.45;;;;;;;-3.59;100.00;93196.47;2081073;28;20068;-84
2023/01/28 01:14:10;;;;;;;25.08;14.55;;;;;;;-3.47;100.00;93195.72;2087481;28;20354;-81
2023/01/28 01:15:11;;;;;;;27.10;15.88;;;;;;;-3.57;100.00;93200.28;2077672;28;20083;-83
2023/01/28 01:16:15;;;;;;;27.25;15.57;;;;;;;-3.64;100.00;93194.06;2079346;28;20107;-83
2023/01/28 01:17:16;;;;;;;24.33;15.05;;;;;;;-3.70;100.00;93206.56;2082517;28;20542;-83
2023/01/28 01:18:17;;;;;;;24.98;14.65;;;;;;;-3.72;100.00;93200.91;2077911;28;20052;-83
2023/01/28 01:19:18;;;;;;;25.55;13.30;;;;;;;-3.73;100.00;93196.00;2076246;28;20041;-83
2023/01/28 01:20:22;;;;;;;24.23;13.90;;;;;;;-3.71;100.00;93199.06;2079023;28;20091;-83
2023/01/28 01:21:26;;;;;;;23.02;13.27;;;;;;;-3.72;100.00;93198.31;2074135;28;20037;-82
2023/01/28 01:22:27;;;;;;;26.40;14.75;;;;;;;-3.88;100.00;93195.53;2078456;28;20025;-84
2023/01/28 01:23:30;;;;;;;24.38;14.15;;;;;;;-3.82;100.00;93196.09;2086399;28;20064;-83
2023/01/28 01:24:32;;;;;;;24.65;13.88;;;;;;;-3.86;100.00;93205.69;2078733;28;20048;-82
2023/01/28 01:25:33;;;;;;;24.98;14.35;;;;;;;-3.83;100.00;93199.78;2080442;28;20517;-82
2023/01/28 01:26:34;;;;;;;24.42;14.63;;;;;;;-3.84;100.00;93200.88;2080261;28;20029;-84
2023/01/28 01:27:35;;;;;;;23.42;14.68;;;;;;;-3.90;100.00;93200.31;2080467;28;20026;-83
2023/01/28 01:28:37;;;;;;;21.67;14.20;;;;;;;-3.89;100.00;93201.09;2074172;28;20025;-83
2023/01/28 01:29:38;;;;;;;23.58;14.27;;;;;;;-3.93;100.00;93208.78;2080820;28;20036;-82
2023/01/28 01:30:39;;;;;;;22.92;14.93;;;;;;;-3.89;100.00;93208.91;2083887;28;20029;-83
2023/01/28 01:31:42;;;;;;;25.52;14.57;;;;;;;-3.80;100.00;93212.97;2086961;28;20025;-85
2023/01/28 01:32:43;;;;;;;23.48;14.90;;;;;;;-3.80;100.00;93210.34;2073396;28;20033;-83
2023/01/28 01:33:46;;;;;;;22.90;14.38;;;;;;;-3.74;100.00;93221.34;2078872;28;20041;-84
2023/01/28 01:34:47;;;;;;;24.27;14.68;;;;;;;-3.64;100.00;93215.72;2070449;28;20390;-82
2023/01/28 01:35:53;;;;;;;20.48;12.35;;;;;;;-3.59;100.00;93212.16;2072398;28;20041;-84
2023/01/28 01:36:54;;;;;;;24.83;13.80;;;;;;;-3.62;100.00;93210.94;2071448;28;20034;-84
2023/01/28 01:37:55;;;;;;;21.80;13.73;;;;;;;-3.51;100.00;93210.50;2075231;28;20029;-82
2023/01/28 01:38:56;;;;;;;23.30;13.70;;;;;;;-3.55;100.00;93219.00;2078434;28;20169;-82
2023/01/28 01:39:57;;;;;;;23.17;13.93;;;;;;;-3.40;100.00;93214.22;2079132;28;20744;-83
2023/01/28 01:40:59;;;;;;;22.20;13.40;;;;;;;-3.50;100.00;93222.50;2068392;28;20058;-82
2023/01/28 01:42:01;;;;;;;21.63;13.90;;;;;;;-3.58;100.00;93221.50;2068155;28;20068;-82
2023/01/28 01:43:16;;;;;;;22.15;13.88;;;;;;;-3.43;100.00;93222.72;2084444;28;20052;-84
2023/01/28 01:44:51;;;;;;;22.58;13.18;;;;;;;-3.65;100.00;93219.41;2078823;28;20025;-83
2023/01/28 01:45:59;;;;;;;21.92;12.30;;;;;;;-3.70;100.00;93229.31;2082213;28;20075;-84
2023/01/28 01:47:00;;;;;;;19.50;12.40;;;;;;;-3.69;100.00;93218.53;2094863;28;20024;-85
2023/01/28 01:48:08;;;;;;;22.90;13.98;;;;;;;-3.67;100.00;93216.38;2088218;28;20020;-82
2023/01/28 01:49:22;;;;;;;24.75;14.15;;;;;;;-3.66;100.00;93217.88;2080185;28;20030;-84
2023/01/28 01:50:51;;;;;;;22.58;14.02;;;;;;;-3.57;100.00;93223.78;2073307;28;20030;-82
2023/01/28 01:52:17;;;;;;;22.05;12.98;;;;;;;-3.58;100.00;93219.66;2078961;28;20412;-82
2023/01/28 01:53:19;;;;;;;21.23;12.82;;;;;;;-3.65;100.00;93224.63;2085821;28;20032;-82
2023/01/28 01:54:24;;;;;;;24.83;14.68;;;;;;;-3.74;100.00;93221.34;2077823;28;20028;-82
2023/01/28 01:55:30;;;;;;;23.23;14.13;;;;;;;-3.78;100.00;93230.16;2079203;28;20022;-83
2023/01/28 01:56:37;;;;;;;28.23;14.57;;;;;;;-3.76;100.00;93228.75;2083841;28;20108;-85
2023/01/28 01:57:39;;;;;;;24.25;14.43;;;;;;;-3.83;100.00;93229.28;2083232;28;20025;-83
2023/01/28 01:58:44;;;;;;;24.60;14.82;;;;;;;-3.74;100.00;93233.66;2077640;28;20178;-84
2023/01/28 01:59:45;;;;;;;27.05;15.18;;;;;;;-3.70;100.00;93224.09;2079291;28;20112;-84
2023/01/28 02:00:46;;;;;;;25.88;15.05;;;;;;;-3.62;100.00;93224.00;2079235;28;20033;-84
2023/01/28 02:01:47;;;;;;;28.25;15.45;;;;;;;-3.68;100.00;93225.28;2079996;28;20815;-84
2023/01/28 02:02:51;;;;;;;24.13;15.13;;;;;;;-3.66;100.00;93222.34;2077193;28;20052;-85
2023/01/28 02:04:23;;;;;;;27.85;15.85;;;;;;;-3.51;100.00;93224.34;2076056;28;20021;-83
2023/01/28 02:05:24;;;;;;;27.25;14.75;;;;;;;-3.60;100.00;93223.66;2087162;28;20061;-84
2023/01/28 02:06:27;;;;;;;25.50;15.43;;;;;;;-3.64;100.00;93220.94;2080123;28;20037;-81
2023/01/28 02:07:28;;;;;;;25.48;14.68;;;;;;;-3.69;100.00;93233.44;2088267;28;20052;-82
2023/01/28 02:08:29;;;;;;;24.52;14.90;;;;;;;-3.81;100.00;93227.09;2087330;28;20474;-85
2023/01/28 02:09:37;;;;;;;29.98;15.98;;;;;;;-3.86;100.00;93226.56;2077288;28;20124;-82
2023/01/28 02:10:39;;;;;;;26.13;15.63;;;;;;;-3.68;100.00;93227.91;2081516;28;20036;-82
2023/01/28 02:11:40;;;;;;;24.20;14.68;;;;;;;-3.53;100.00;93225.75;2087888;28;20044;-82
2023/01/28 02:12:56;;;;;;;24.08;15.10;;;;;;;-3.64;100.00;93231.41;2077774;28;20086;-82
2023/01/28 02:14:02;;;;;;;23.40;14.95;;;;;;;-3.64;100.00;93230.66;2082015;28;20033;-82
2023/01/28 02:15:19;;;;;;;25.42;14.60;;;;;;;-3.61;100.00;93225.50;2078684;28;20022;-82
2023/01/28 02:16:21;;;;;;;22.95;14.25;;;;;;;-3.76;100.00;93233.97;2072290;28;20028;-82
2023/01/28 02:32:24;;;;;;;;;;;;;;;-3.56;100.00;93227.94;2577553;22;20339;-83
2023/01/28 02:33:55;;;;;;;20.45;12.20;;;;;;;-3.49;100.00;93230.00;2560760;23;19916;-84
2023/01/28 02:35:19;;;;;;;20.15;12.35;;;;;;;-3.60;100.00;93236.72;2523426;23;20006;-85
2023/01/28 02:36:35;;;;;;;18.17;12.13;;;;;;;-3.50;100.00;93227.72;2557354;23;20011;-83
2023/01/28 02:37:57;;;;;;;20.52;12.60;;;;;;;-3.48;100.00;93226.31;2563565;23;20005;-82
2023/01/28 02:39:06;;;;;;;23.50;12.55;;;;;;;-3.48;100.00;93215.84;2552538;23;20072;-82
2023/01/28 02:40:15;;;;;;;19.35;12.57;;;;;;;-3.64;100.00;93223.56;2539766;23;20009;-83
2023/01/28 02:41:49;;;;;;;20.27;13.48;;;;;;;-3.42;100.00;93226.88;2551889;23;20360;-83
2023/01/28 02:42:50;;;;;;;19.17;12.88;;;;;;;-3.61;100.00;93228.13;2549699;23;20140;-83
2023/01/28 02:43:51;;;;;;;21.63;13.95;;;;;;;-3.26;100.00;93227.75;2537748;23;20033;-81
2023/01/28 02:44:52;;;;;;;22.35;13.52;;;;;;;-3.36;100.00;93228.94;2558481;23;20032;-81
2023/01/28 02:48:33;;;;;;;20.63;12.70;;;;;;;-3.65;100.00;93234.31;2571003;23;20428;-84
2023/01/28 02:49:52;;;;;;;18.27;12.85;;;;;;;-3.71;100.00;93246.06;2553898;23;20001;-82
2023/01/28 02:51:08;;;;;;;22.77;13.25;;;;;;;-3.69;100.00;93230.81;2545526;23;20002;-82
2023/01/28 02:52:16;;;;;;;20.13;13.20;;;;;;;-3.72;100.00;93229.63;2543736;23;20005;-83
2023/01/28 02:55:06;;;;;;;17.65;12.52;;;;;;;-3.63;100.00;93238.16;2565285;23;20059;-83
2023/01/28 02:56:23;;;;;;;18.73;12.68;;;;;;;-3.65;100.00;93239.53;2555091;23;20001;-80
2023/01/28 02:57:38;;;;;;;20.70;13.40;;;;;;;-3.70;100.00;93243.13;2543062;23;20009;-83
2023/01/28 02:58:56;;;;;;;21.95;12.85;;;;;;;-3.67;100.00;93232.03;2554499;23;20005;-84
2023/01/28 03:00:10;;;;;;;22.75;13.75;;;;;;;-3.72;100.00;93239.31;2561072;23;20005;-84
2023/01/28 03:01:28;;;;;;;21.13;12.43;;;;;;;-3.72;100.00;93239.31;2560765;23;20056;-84
2023/01/28 03:02:36;;;;;;;21.08;13.43;;;;;;;-3.75;100.00;93232.13;2555152;23;20009;-84
2023/01/28 03:03:55;;;;;;;21.42;13.30;;;;;;;-3.70;100.00;93239.75;2560477;23;20091;-83
2023/01/28 03:05:03;;;;;;;22.13;13.23;;;;;;;-3.81;100.00;93239.41;2552320;23;20356;-83
2023/01/28 03:06:08;;;;;;;19.40;12.52;;;;;;;-3.80;100.00;93233.09;2539025;23;20050;-83
2023/01/28 03:07:12;;;;;;;19.42;12.82;;;;;;;-3.52;100.00;93237.72;2550473;23;20040;-84
2023/01/28 03:09:36;;;;;;;19.27;12.40;;;;;;;-3.65;100.00;93235.06;2556162;23;20579;-83
2023/01/28 03:10:37;;;;;;;21.15;13.32;;;;;;;-3.71;100.00;93243.47;2548761;23;20041;-80
2023/01/28 03:36:55;;;;;;;19.98;11.57;;;;;;;-3.64;100.00;93252.28;2561646;23;20016;-82
2023/01/28 03:37:59;;;;;;;19.75;13.00;;;;;;;-3.69;100.00;93246.50;2545111;23;20367;-81
2023/01/28 03:39:01;;;;;;;19.13;13.10;;;;;;;-3.71;100.00;93252.06;2545484;23;20487;-83
2023/01/28 03:40:06;;;;;;;21.65;13.57;;;;;;;-3.74;100.00;93246.69;2545378;23;20005;-84
2023/01/28 03:41:09;;;;;;;21.20;13.50;;;;;;;-3.62;100.00;93249.34;2547084;23;20012;-82
2023/01/28 03:42:13;;;;;;;17.50;12.48;;;;;;;-3.63;100.00;93242.59;2558099;23;20569;-83
2023/01/28 03:43:14;;;;;;;19.13;12.43;;;;;;;-3.70;100.00;93250.97;2545837;23;20001;-83
2023/01/28 03:45:34;;;;;;;20.15;11.73;;;;;;;-3.76;100.00;93248.88;2561138;23;20477;-84
2023/01/28 03:46:38;;;;;;;21.33;12.77;;;;;;;-3.72;100.00;93252.38;2544797;23;20092;-81
2023/01/28 03:47:39;;;;;;;23.15;13.27;;;;;;;-3.77;100.00;93253.34;2545694;23;20810;-81
2023/01/28 03:48:40;;;;;;;19.50;12.60;;;;;;;-3.57;100.00;93247.28;2533388;23;20002;-83
2023/01/28 03:49:48;;;;;;;19.98;12.73;;;;;;;-3.66;100.00;93256.31;2545822;23;20076;-83
2023/01/28 03:50:49;;;;;;;20.38;12.35;;;;;;;-3.69;100.00;93249.09;2558869;23;20503;-84
2023/01/28 03:51:50;;;;;;;20.42;12.70;;;;;;;-3.82;100.00;93251.69;2545616;23;20005;-82
2023/01/28 03:52:51;;;;;;;19.48;12.63;;;;;;;-3.88;100.00;93262.66;2547859;23;20016;-82
2023/01/28 03:53:52;;;;;;;21.75;14.30;;;;;;;-3.84;100.00;93247.88;2549509;23;20008;-79
2023/01/28 03:54:53;;;;;;;22.48;13.57;;;;;;;-3.82;100.00;93256.13;2562408;23;20008;-81
2023/01/28 03:55:55;;;;;;;20.67;13.45;;;;;;;-3.91;100.00;93255.47;2557391;23;20036;-84
2023/01/28 03:56:56;;;;;;;25.40;13.95;;;;;;;-4.00;100.00;93252.91;2557401;23;20431;-83
2023/01/28 03:57:57;;;;;;;20.20;13.65;;;;;;;-4.00;100.00;93254.78;2544878;23;20001;-82
2023/01/28 03:58:58;;;;;;;27.20;15.18;;;;;;;-3.84;100.00;93247.88;2533316;23;20447;-82
2023/01/28 03:59:59;;;;;;;25.83;14.45;;;;;;;-3.81;100.00;93255.06;2532980;23;20015;-84
2023/01/28 04:01:00;;;;;;;21.90;13.85;;;;;;;-3.88;100.00;93257.44;2533068;23;20006;-85
2023/01/28 04:02:05;;;;;;;21.60;13.38;;;;;;;-3.81;100.00;93252.47;2545030;23;20316;-84
2023/01/28 04:03:14;;;;;;;21.48;13.32;;;;;;;-3.77;100.00;93247.38;2545248;23;20504;-85
2023/01/28 04:04:22;;;;;;;21.02;13.20;;;;;;;-3.90;100.00;93247.31;2536062;23;20275;-82
2023/01/28 04:05:24;;;;;;;21.23;13.45;;;;;;;-3.89;100.00;93248.09;2546920;23;20546;-81
2023/01/28 04:06:25;;;;;;;20.35;13.32;;;;;;;-3.90;100.00;93251.78;2544878;23;20412;-83
2023/01/28 04:07:26;;;;;;;21.88;13.35;;;;;;;-3.84;100.00;93253.09;2544750;23;20032;-81
2023/01/28 04:08:27;;;;;;;21.70;13.30;;;;;;;-3.82;100.00;93249.09;2544809;23;20025;-84
2023/01/28 04:09:28;;;;;;;21.48;13.82;;;;;;;-3.72;100.00;93260.22;2532177;23;20009;-82
2023/01/28 04:10:29;;;;;;;20.75;13.55;;;;;;;-3.73;100.00;93253.44;2544803;23;20367;-82
2023/01/28 04:11:30;;;;;;;21.52;12.60;;;;;;;-3.92;100.00;93259.91;2532094;23;20029;-83
2023/01/28 04:12:31;;;;;;;20.88;13.30;;;;;;;-3.76;100.00;93251.50;2532592;23;20002;-85
2023/01/28 04:13:32;;;;;;;21.08;12.90;;;;;;;-3.81;100.00;93260.31;2532097;23;20001;-83
2023/01/28 04:14:33;;;;;;;20.88;12.65;;;;;;;-3.60;100.00;93263.63;2544528;23;20005;-83
2023/01/28 04:15:35;;;;;;;21.30;12.32;;;;;;;-3.80;100.00;93254.75;2533330;23;20006;-83
2023/01/28 04:16:37;;;;;;;21.23;13.18;;;;;;;-3.80;100.00;93256.59;2545558;23;19998;-83
2023/01/28 04:17:38;;;;;;;24.27;13.40;;;;;;;-3.73;100.00;93253.44;2557261;23;20016;-83
2023/01/28 04:18:39;;;;;;;22.80;13.80;;;;;;;-3.82;100.00;93256.13;2557081;23;20464;-83
2023/01/28 04:19:40;;;;;;;22.45;13.77;;;;;;;-3.80;100.00;93259.22;2556312;23;20043;-84
2023/01/28 04:20:41;;;;;;;19.33;13.00;;;;;;;-3.90;100.00;93264.84;2544520;23;20009;-83
2023/01/28 04:21:42;;;;;;;22.08;13.77;;;;;;;-3.86;100.00;93269.09;2544569;23;20005;-85
2023/01/28 04:22:43;;;;;;;20.85;13.77;;;;;;;-3.83;100.00;93265.06;2556945;23;20428;-82
2023/01/28 04:23:44;;;;;;;23.50;15.02;;;;;;;-3.86;100.00;93263.88;2532087;23;20010;-84
2023/01/28 04:24:45;;;;;;;21.75;13.55;;;;;;;-3.52;100.00;93261.22;2532548;23;20013;-85
2023/01/28 04:25:49;;;;;;;19.88;13.18;;;;;;;-3.59;100.00;93267.75;2544573;23;20021;-86
2023/01/28 04:26:50;;;;;;;22.35;13.75;;;;;;;-3.51;100.00;93265.38;2533536;23;20002;-82
2023/01/28 04:27:52;;;;;;;19.95;12.60;;;;;;;-3.49;100.00;93265.81;2532305;23;20049;-81
2023/01/28 04:28:53;;;;;;;22.05;13.40;;;;;;;-3.57;100.00;93270.81;2532411;23;20010;-84
2023/01/28 04:29:54;;;;;;;21.02;13.38;;;;;;;-3.50;100.00;93266.91;2545037;23;20366;-85
2023/01/28 04:30:55;;;;;;;20.50;12.18;;;;;;;-3.60;100.00;93268.06;2544416;23;20001;-83
2023/01/28 04:31:56;;;;;;;19.95;12.93;;;;;;;-3.27;100.00;93264.66;2531613;23;20018;-81
2023/01/28 04:32:57;;;;;;;22.05;12.45;;;;;;;-3.71;100.00;93259.13;2532908;23;20010;-85
2023/01/28 04:33:58;;;;;;;20.75;11.40;;;;;;;-3.78;100.00;93266.72;2544784;23;20108;-81
2023/01/28 04:34:59;;;;;;;18.05;11.65;;;;;;;-3.69;100.00;93260.31;2532476;23;20034;-84
2023/01/28 04:36:00;;;;;;;20.88;12.77;;;;;;;-3.71;100.00;93262.50;2532256;23;20002;-82
2023/01/28 04:37:02;;;;;;;18.55;11.45;;;;;;;-3.74;100.00;93265.75;2532847;23;20012;-85
2023/01/28 04:38:03;;;;;;;19.50;11.38;;;;;;;-3.67;100.00;93268.59;2545625;23;20012;-83
2023/01/28 04:39:04;;;;;;;17.73;11.55;;;;;;;-3.49;100.00;93260.59;2557374;23;20397;-84
2023/01/28 04:40:05;;;;;;;20.10;11.95;;;;;;;-3.59;100.00;93262.53;2557578;23;20549;-82
2023/01/28 04:41:06;;;;;;;20.52;11.93;;;;;;;-3.61;100.00;93266.53;2533655;23;20005;-83
2023/01/28 04:42:07;;;;;;;19.08;11.20;;;;;;;-3.64;100.00;93273.19;2532383;23;20037;-82
2023/01/28 04:43:08;;;;;;;17.77;11.27;;;;;;;-3.57;100.00;93276.03;2532746;23;20005;-81
2023/01/28 04:44:09;;;;;;;21.67;11.98;;;;;;;-3.53;100.00;93280.63;2533012;23;20006;-81
2023/01/28 04:45:10;;;;;;;17.80;11.05;;;;;;;-3.61;100.00;93280.38;2533099;23;20025;-83
2023/01/28 04:46:11;;;;;;;19.00;12.23;;;;;;;-3.63;100.00;93282.56;2532913;23;20434;-84
2023/01/28 04:47:12;;;;;;;18.42;11.60;;;;;;;-3.57;100.00;93276.03;2532785;23;20001;-81
2023/01/28 04:48:14;;;;;;;20.23;12.43;;;;;;;-3.64;100.00;93282.88;2545173;23;20001;-84
2023/01/28 04:49:15;;;;;;;20.15;11.30;;;;;;;-3.60;100.00;93279.31;2533394;23;20006;-83
2023/01/28 04:50:16;;;;;;;20.25;12.15;;;;;;;-3.59;100.00;93280.81;2533070;23;20017;-84
2023/01/28 04:51:17;;;;;;;21.38;12.73;;;;;;;-3.69;100.00;93281.22;2532718;23;20098;-83
2023/01/28 04:52:18;;;;;;;19.63;12.93;;;;;;;-3.65;100.00;93287.31;2533105;23;20012;-82
2023/01/28 04:53:19;;;;;;;17.40;11.38;;;;;;;-3.60;100.00;93275.91;2533395;23;20006;-84
2023/01/28 04:54:20;;;;;;;21.08;12.00;;;;;;;-3.64;100.00;93291.47;2545177;23;20032;-82
2023/01/28 04:55:20;;;;;;;18.63;11.40;;;;;;;-3.61;100.00;93282.97;2533261;23;20033;-84
2023/01/28 04:56:21;;;;;;;18.17;11.18;;;;;;;-3.61;100.00;93282.22;2532967;23;20076;-82
2023/01/28 04:57:22;;;;;;;19.60;11.75;;;;;;;-3.67;100.00;93279.06;2533316;23;20330;-83
2023/01/28 04:58:23;;;;;;;17.25;11.10;;;;;;;-3.80;100.00;93291.31;2532703;23;20010;-83
2023/01/28 04:59:24;;;;;;;16.98;11.00;;;;;;;-3.80;100.00;93291.31;2533172;23;20394;-80
2023/01/28 05:00:25;;;;;;;19.88;12.10;;;;;;;-3.78;100.00;93290.97;2533362;23;20005;-82
2023/01/28 05:01:28;;;;;;;17.73;11.80;;;;;;;-3.80;100.00;93288.69;2545658;23;20001;-84
2023/01/28 05:02:29;;;;;;;20.42;11.85;;;;;;;-3.78;100.00;93287.59;2557937;23;20056;-84
2023/01/28 05:03:30;;;;;;;19.52;12.38;;;;;;;-3.69;100.00;93283.81;2544547;23;20009;-83
2023/01/28 05:04:31;;;;;;;18.48;11.75;;;;;;;-3.51;100.00;93294.91;2557107;23;20004;-83
2023/01/28 05:05:32;;;;;;;19.50;12.07;;;;;;;-3.65;100.00;93297.75;2557142;23;20023;-83
2023/01/28 05:06:33;;;;;;;17.85;11.25;;;;;;;-3.61;100.00;93290.81;2532687;23;20727;-84
2023/01/28 05:07:35;;;;;;;18.17;10.73;;;;;;;-3.68;100.00;93295.06;2532805;23;20306;-83
2023/01/28 05:08:36;;;;;;;19.15;11.00;;;;;;;-3.69;100.00;93299.50;2533367;23;20080;-82
2023/01/28 05:09:37;;;;;;;18.92;11.15;;;;;;;-3.64;100.00;93296.69;2544912;23;20020;-84
2023/01/28 05:10:39;;;;;;;18.63;11.25;;;;;;;-3.67;100.00;93299.19;2532730;23;20005;-83
2023/01/28 05:11:40;;;;;;;16.65;11.63;;;;;;;-3.73;100.00;93297.84;2533201;23;20111;-84
2023/01/28 05:12:43;;;;;;;17.50;11.70;;;;;;;-3.80;100.00;93290.53;2533041;23;20449;-83
2023/01/28 05:13:44;;;;;;;17.13;10.95;;;;;;;-3.72;100.00;93294.94;2557160;23;20009;-83
2023/01/28 05:14:45;;;;;;;17.55;11.13;;;;;;;-3.75;100.00;93292.94;2544504;23;20290;-82
2023/01/28 05:15:50;;;;;;;64.32;27.52;;;;;;;-3.82;100.00;93303.13;2532998;23;20009;-83
2023/01/28 05:16:51;;;;;;;48.38;21.23;;;;;;;-3.81;100.00;93297.63;2534800;23;20005;-85
2023/01/28 05:17:55;;;;;;;90.95;38.92;;;;;;;-3.78;100.00;93301.41;2540898;23;20013;-80
2023/01/28 05:18:56;;;;;;;33.08;20.13;;;;;;;-3.77;100.00;93299.59;2543567;23;20006;-83
2023/01/28 05:19:57;;;;;;;22.80;15.27;;;;;;;-3.71;100.00;93303.53;2542385;23;20002;-82
2023/01/28 05:20:58;;;;;;;39.28;25.60;;;;;;;-3.60;100.00;93292.38;2563120;23;20047;-81
2023/01/28 05:21:59;;;;;;;32.80;19.63;;;;;;;-3.63;100.00;93302.69;2560641;23;20012;-83
2023/01/28 05:23:00;;;;;;;44.53;28.20;;;;;;;-3.68;100.00;93303.66;2562196;23;20313;-83
2023/01/28 05:24:01;;;;;;;30.80;21.52;;;;;;;-3.74;100.00;93302.31;2547000;23;20009;-82
2023/01/28 05:25:03;;;;;;;24.17;15.70;;;;;;;-3.49;100.00;93315.47;2535009;23;20464;-82
2023/01/28 05:26:04;;;;;;;18.65;12.27;;;;;;;-3.51;100.00;93305.34;2534935;23;20013;-81
2023/01/28 05:27:06;;;;;;;26.20;14.60;;;;;;;-3.56;100.00;93306.31;2534384;23;20025;-84
2023/01/28 05:28:07;;;;;;;19.10;13.60;;;;;;;-3.48;100.00;93315.13;2545782;23;20005;-82
2023/01/28 05:29:08;;;;;;;19.75;12.30;;;;;;;-3.45;100.00;93311.13;2545784;23;20076;-84
2023/01/28 05:30:09;;;;;;;16.77;11.45;;;;;;;-3.61;100.00;93308.34;2545656;23;20008;-83
2023/01/28 05:31:11;;;;;;;19.45;12.63;;;;;;;-3.69;100.00;93317.78;2533566;23;20002;-82
2023/01/28 05:32:12;;;;;;;17.35;11.43;;;;;;;-3.60;100.00;93313.25;2532979;23;20056;-84
2023/01/28 05:33:13;;;;;;;16.60;10.65;;;;;;;-3.65;100.00;93312.69;2533053;23;20448;-82
2023/01/28 05:34:13;;;;;;;19.17;11.48;;;;;;;-3.56;100.00;93308.13;2533011;23;20010;-83
2023/01/28 05:35:15;;;;;;;16.40;11.27;;;;;;;-3.55;100.00;93307.84;2533243;23;20088;-80